Time;durP1;ratioP1;P1;durP2;ratioP2;P2;SDS_P1;SDS_P2;PMS_P1;PMS_P2;Temp;Humidity;BMP_temperature;BMP_pressure;BME280_temperature;BME280_humidity;BME280_pressure;Samples;Min_cycle;Max_cycle;Signal;HPM_P1;HPM_P2
2021/12/22 00:00:53;;;;;;;8.20;6.27;;;;;;;-8.22;100.00;97236.72;5090345;28;20452;-72
2021/12/22 00:03:21;;;;;;;6.87;5.57;;;;;;;-8.62;100.00;97225.34;5073747;28;20938;-72
2021/12/22 00:05:50;;;;;;;8.13;6.40;;;;;;;-8.36;100.00;97253.81;5090195;28;20456;-72
2021/12/22 00:08:18;;;;;;;6.10;5.50;;;;;;;-8.31;100.00;97253.22;5090206;28;20526;-71
2021/12/22 00:10:46;;;;;;;5.90;5.27;;;;;;;-8.32;100.00;97227.75;5073450;28;20480;-71
2021/12/22 00:13:13;;;;;;;6.77;6.17;;;;;;;-8.03;100.00;97260.94;5073585;28;20950;-71
2021/12/22 00:15:40;;;;;;;7.03;6.43;;;;;;;-8.07;100.00;97260.53;5092350;28;20853;-72
2021/12/22 00:18:07;;;;;;;6.30;5.67;;;;;;;-8.19;100.00;97259.44;5095226;28;20485;-71
2021/12/22 00:20:34;;;;;;;8.73;7.93;;;;;;;-8.48;100.00;97221.16;5095088;28;20423;-71
2021/12/22 00:23:00;;;;;;;6.50;5.90;;;;;;;-8.39;100.00;97227.75;5094832;28;20433;-72
2021/12/22 00:25:27;;;;;;;8.87;7.30;;;;;;;-8.34;100.00;97227.97;5094991;28;20497;-71
2021/12/22 00:27:56;;;;;;;6.13;5.53;;;;;;;-8.15;100.00;97257.28;5095118;28;20490;-72
2021/12/22 00:30:27;;;;;;;7.87;6.77;;;;;;;-8.08;100.00;97255.56;5093846;28;20937;-72
2021/12/22 00:33:01;;;;;;;8.07;7.30;;;;;;;-8.07;100.00;97257.97;5077090;28;20552;-72
2021/12/22 00:35:37;;;;;;;9.60;6.20;;;;;;;-8.10;100.00;97249.84;5095300;28;20407;-72
2021/12/22 00:38:05;;;;;;;9.03;6.40;;;;;;;-8.13;100.00;97239.97;5095050;28;20451;-71
2021/12/22 00:40:32;;;;;;;7.70;6.97;;;;;;;-7.99;100.00;97266.50;5076691;28;20480;-72
2021/12/22 00:42:59;;;;;;;9.47;7.30;;;;;;;-8.12;100.00;97255.16;5093298;28;20465;-70
2021/12/22 00:45:28;;;;;;;10.80;8.03;;;;;;;-8.21;100.00;97243.44;5094775;28;20568;-70
2021/12/22 00:47:55;;;;;;;8.60;6.20;;;;;;;-8.11;100.00;97273.91;5093280;28;20483;-70
2021/12/22 00:50:22;;;;;;;7.47;6.63;;;;;;;-8.01;100.00;97266.69;5094807;28;20428;-70
2021/12/22 00:52:50;;;;;;;5.90;5.30;;;;;;;-8.00;100.00;97270.06;5093140;28;20435;-72
2021/12/22 00:55:19;;;;;;;12.93;5.77;;;;;;;-8.04;100.00;97275.53;5093452;28;20431;-70
2021/12/22 00:57:48;;;;;;;7.83;6.37;;;;;;;-8.16;100.00;97260.81;5093143;28;21229;-72
2021/12/22 01:00:21;;;;;;;7.30;6.07;;;;;;;-8.04;100.00;97275.53;5092983;28;20451;-70
2021/12/22 01:02:48;;;;;;;8.73;5.50;;;;;;;-8.28;100.00;97250.28;5094487;28;20485;-70
2021/12/22 01:05:16;;;;;;;5.53;5.00;;;;;;;-8.18;100.00;97262.78;5076242;28;20466;-70
2021/12/22 01:07:46;;;;;;;8.37;6.90;;;;;;;-8.22;100.00;97274.41;5092937;28;20451;-71
2021/12/22 01:10:22;;;;;;;5.17;4.67;;;;;;;-8.37;100.00;97256.56;5094412;28;20992;-70
2021/12/22 01:12:52;;;;;;;11.50;5.60;;;;;;;-8.25;100.00;97265.31;5094340;28;20472;-70
2021/12/22 01:15:20;;;;;;;5.33;4.83;;;;;;;-8.27;100.00;97269.03;5092819;28;20488;-71
2021/12/22 01:17:49;;;;;;;5.47;4.97;;;;;;;-8.29;100.00;97266.63;5094182;28;20458;-70
2021/12/22 01:20:28;;;;;;;9.33;5.90;;;;;;;-8.38;100.00;97260.88;5094061;28;20435;-70
2021/12/22 01:23:02;;;;;;;6.13;5.53;;;;;;;-8.31;100.00;97272.94;5076128;28;20439;-71
2021/12/22 01:25:32;;;;;;;6.67;5.90;;;;;;;-8.32;100.00;97276.47;5092868;28;20454;-70
2021/12/22 01:27:59;;;;;;;6.87;5.40;;;;;;;-8.30;100.00;97275.31;5093352;28;20444;-70
2021/12/22 01:30:29;;;;;;;5.20;4.80;;;;;;;-8.43;100.00;97281.13;5075909;28;20538;-70
2021/12/22 01:32:59;;;;;;;7.13;5.30;;;;;;;-8.66;100.00;97260.03;5076098;28;20416;-71
2021/12/22 01:35:28;;;;;;;8.57;6.03;;;;;;;-8.68;100.00;97285.81;5092724;28;20835;-71
2021/12/22 01:37:56;;;;;;;7.53;5.50;;;;;;;-8.59;100.00;97275.44;5092356;28;20978;-71
2021/12/22 01:40:23;;;;;;;5.10;4.40;;;;;;;-8.54;100.00;97275.72;5092671;28;20463;-70
2021/12/22 01:42:51;;;;;;;6.03;4.63;;;;;;;-8.55;100.00;97284.34;5092558;28;20476;-71
2021/12/22 01:45:47;;;;;;;4.87;4.40;;;;;;;-8.51;100.00;97272.78;5092176;28;20516;-71
2021/12/22 01:51:08;;;;;;;6.00;5.27;;;;;;;-8.62;100.00;97280.94;5093459;28;20415;-71
2021/12/22 01:53:46;;;;;;;5.63;4.60;;;;;;;-8.58;100.00;97282.94;5092282;28;20438;-71
2021/12/22 01:56:27;;;;;;;4.87;4.30;;;;;;;-8.61;100.00;97279.97;5092337;28;20428;-71
2021/12/22 01:58:58;;;;;;;10.23;4.73;;;;;;;-8.54;100.00;97281.63;5092077;28;20454;-71
2021/12/22 02:01:26;;;;;;;8.50;6.60;;;;;;;-8.51;100.00;97280.47;5092270;28;20777;-71
2021/12/22 02:03:53;;;;;;;8.23;5.40;;;;;;;-8.57;100.00;97268.38;5093393;28;20485;-71
2021/12/22 02:06:22;;;;;;;5.70;5.20;;;;;;;-8.60;100.00;97289.25;5091866;28;20466;-71
2021/12/22 02:08:49;;;;;;;7.00;5.10;;;;;;;-8.75;100.00;97291.84;5074968;28;20554;-71
2021/12/22 02:11:17;;;;;;;6.37;5.80;;;;;;;-8.62;100.00;97289.44;5092975;28;20455;-71
2021/12/22 02:13:49;;;;;;;6.00;5.50;;;;;;;-8.68;100.00;97290.94;5074897;28;20463;-70
2021/12/22 02:16:19;;;;;;;5.50;4.87;;;;;;;-8.66;100.00;97285.66;5091500;28;20481;-71
2021/12/22 02:18:50;;;;;;;4.50;4.20;;;;;;;-8.71;100.00;97281.03;5092710;28;20921;-71
2021/12/22 02:21:18;;;;;;;9.83;7.73;;;;;;;-8.78;100.00;97279.41;5091253;28;20477;-71
2021/12/22 02:23:45;;;;;;;7.37;6.07;;;;;;;-8.81;100.00;97274.63;5090957;28;20476;-71
2021/12/22 02:26:29;;;;;;;8.03;5.20;;;;;;;-8.83;100.00;97271.44;5090648;28;20490;-71
2021/12/22 02:29:03;;;;;;;8.17;5.97;;;;;;;-8.87;100.00;97259.97;5090811;28;20475;-71
2021/12/22 02:31:36;;;;;;;19.80;10.37;;;;;;;-8.75;100.00;97272.13;5091040;28;20948;-71
2021/12/22 02:34:03;;;;;;;12.97;9.10;;;;;;;-8.76;100.00;97275.69;5090787;28;20460;-71
2021/12/22 02:36:37;;;;;;;12.50;7.90;;;;;;;-8.82;100.00;97281.50;5090824;28;20907;-70
2021/12/22 02:39:04;;;;;;;12.53;8.60;;;;;;;-8.85;100.00;97281.06;5091256;28;20852;-71
2021/12/22 02:41:32;;;;;;;8.90;7.07;;;;;;;-9.16;100.00;97242.91;5090744;28;20939;-71
2021/12/22 02:43:59;;;;;;;7.40;6.47;;;;;;;-8.86;100.00;97287.19;5090921;28;20601;-71
2021/12/22 02:46:33;;;;;;;5.33;4.70;;;;;;;-8.97;100.00;97286.66;5074105;28;20551;-71
2021/12/22 02:49:03;;;;;;;6.20;5.60;;;;;;;-8.95;100.00;97287.31;5090592;28;20412;-71
2021/12/22 02:51:30;;;;;;;8.30;5.40;;;;;;;-8.97;100.00;97283.31;5092237;28;20427;-71
2021/12/22 02:54:10;;;;;;;4.50;4.10;;;;;;;-9.01;100.00;97272.63;5091829;28;20447;-71
2021/12/22 03:02:17;;;;;;;6.63;4.77;;;;;;;-9.01;100.00;97290.56;5091632;28;20455;-71
2021/12/22 03:04:57;;;;;;;5.33;4.93;;;;;;;-9.21;100.00;97281.03;5090155;28;20467;-71
2021/12/22 03:07:28;;;;;;;5.00;4.50;;;;;;;-9.03;100.00;97300.19;5091617;28;20472;-71
2021/12/22 03:10:00;;;;;;;7.23;6.03;;;;;;;-9.08;100.00;97294.00;5091668;28;20423;-71
2021/12/22 03:12:29;;;;;;;5.17;4.67;;;;;;;-9.06;100.00;97315.91;5091531;28;20447;-71
2021/12/22 03:14:56;;;;;;;6.10;4.33;;;;;;;-9.23;100.00;97314.50;5090100;28;20431;-71
2021/12/22 03:17:22;;;;;;;5.20;4.40;;;;;;;-9.11;100.00;97313.06;5090100;28;20516;-71
2021/12/22 03:19:50;;;;;;;5.83;3.33;;;;;;;-9.16;100.00;97300.03;5090089;28;20435;-71
2021/12/22 03:22:19;;;;;;;5.20;4.37;;;;;;;-9.17;100.00;97308.69;5090230;28;20926;-71
2021/12/22 03:24:48;;;;;;;9.03;4.80;;;;;;;-9.13;100.00;97299.66;5073240;28;20618;-72
2021/12/22 03:27:15;;;;;;;7.70;5.13;;;;;;;-9.15;100.00;97299.06;5091255;28;20554;-71
2021/12/22 03:29:42;;;;;;;5.40;5.00;;;;;;;-9.27;100.00;97278.22;5090010;28;20440;-71
2021/12/22 03:32:09;;;;;;;7.73;5.30;;;;;;;-9.19;100.00;97284.22;5091426;28;20831;-71
2021/12/22 03:34:37;;;;;;;5.77;5.27;;;;;;;-9.31;100.00;97291.56;5089933;28;20477;-71
2021/12/22 03:37:05;;;;;;;5.90;4.90;;;;;;;-9.29;100.00;97295.53;5091222;28;20475;-71
2021/12/22 03:39:35;;;;;;;10.20;5.40;;;;;;;-9.29;100.00;97292.97;5089922;28;20428;-71
2021/12/22 03:42:05;;;;;;;10.07;5.37;;;;;;;-9.35;100.00;97291.09;5089856;28;20777;-70
2021/12/22 03:44:32;;;;;;;5.73;5.23;;;;;;;-9.45;100.00;97271.88;5089757;28;20539;-71
2021/12/22 03:47:00;;;;;;;6.20;5.13;;;;;;;-9.30;100.00;97285.47;5089648;28;20513;-71
2021/12/22 03:49:27;;;;;;;7.70;5.17;;;;;;;-9.39;100.00;97284.75;5091121;28;20466;-71
2021/12/22 03:51:55;;;;;;;6.40;4.80;;;;;;;-9.23;100.00;97299.13;5095119;28;20427;-71
2021/12/22 03:54:22;;;;;;;4.50;4.13;;;;;;;-9.34;100.00;97295.28;5095107;28;20497;-71
2021/12/22 03:56:50;;;;;;;8.00;5.77;;;;;;;-9.36;100.00;97294.63;5095006;28;20532;-71
2021/12/22 03:59:17;;;;;;;8.30;7.47;;;;;;;-9.39;100.00;97284.75;5093498;28;20870;-71
2021/12/22 04:01:45;;;;;;;9.07;6.77;;;;;;;-9.32;100.00;97292.53;5093644;28;20606;-71
2021/12/22 04:04:15;;;;;;;7.37;5.77;;;;;;;-9.35;100.00;97291.09;5093590;28;20427;-71
2021/12/22 04:06:44;;;;;;;6.10;5.47;;;;;;;-9.62;100.00;97256.66;5094786;28;20462;-71
2021/12/22 04:09:12;;;;;;;5.90;4.83;;;;;;;-9.45;100.00;97267.56;5076563;28;20451;-71
2021/12/22 04:11:39;;;;;;;10.13;5.60;;;;;;;-9.45;100.00;97266.75;5094802;28;20530;-71
2021/12/22 04:14:06;;;;;;;12.37;8.70;;;;;;;-9.42;100.00;97287.66;5076817;28;20488;-71
2021/12/22 04:16:34;;;;;;;10.63;7.90;;;;;;;-9.38;100.00;97299.13;5094803;28;20439;-71
2021/12/22 04:19:01;;;;;;;8.10;6.43;;;;;;;-9.37;100.00;97303.28;5095423;28;20489;-71
2021/12/22 04:21:29;;;;;;;10.00;6.40;;;;;;;-9.42;100.00;97299.66;5078194;28;20439;-71
2021/12/22 04:23:56;;;;;;;10.40;7.17;;;;;;;-9.41;100.00;97291.81;5096347;28;20427;-71
2021/12/22 04:26:24;;;;;;;5.77;5.20;;;;;;;-9.31;100.00;97309.47;5094445;28;20494;-72
2021/12/22 04:28:50;;;;;;;6.90;6.20;;;;;;;-9.35;100.00;97303.09;5094333;28;20513;-71
2021/12/22 04:31:17;;;;;;;6.90;6.20;;;;;;;-9.49;100.00;97303.88;5093133;28;20488;-71
2021/12/22 04:33:43;;;;;;;9.00;8.20;;;;;;;-9.51;100.00;97298.94;5076122;28;20451;-71
2021/12/22 04:36:10;;;;;;;7.67;6.20;;;;;;;-9.84;100.00;97276.25;5094217;28;20455;-71
2021/12/22 04:38:37;;;;;;;8.67;7.20;;;;;;;-9.72;100.00;97321.88;5092963;28;21067;-71
2021/12/22 04:41:03;;;;;;;6.63;5.90;;;;;;;-9.77;100.00;97306.22;5092890;28;20473;-71
2021/12/22 04:43:30;;;;;;;6.13;5.50;;;;;;;-9.78;100.00;97295.22;5094128;28;20847;-71
2021/12/22 04:45:57;;;;;;;9.53;7.17;;;;;;;-9.69;100.00;97294.19;5093970;28;20540;-71
2021/12/22 04:48:24;;;;;;;19.43;11.93;;;;;;;-9.54;100.00;97312.09;5092573;28;20471;-71
2021/12/22 04:50:51;;;;;;;20.20;15.80;;;;;;;-9.87;100.00;97265.56;5092676;28;20518;-71
2021/12/22 04:53:24;;;;;;;23.10;12.80;;;;;;;-9.55;100.00;97311.31;5092678;28;20427;-71
2021/12/22 04:55:56;;;;;;;19.00;11.03;;;;;;;-9.59;100.00;97304.97;5092679;28;20427;-71
2021/12/22 04:58:22;;;;;;;26.03;14.43;;;;;;;-9.66;100.00;97298.13;5092784;28;20566;-71
2021/12/22 05:00:49;;;;;;;25.87;14.60;;;;;;;-9.56;100.00;97308.94;5092328;28;20443;-71
2021/12/22 05:03:16;;;;;;;30.47;16.47;;;;;;;-9.53;100.00;97316.25;5074962;28;20819;-71
2021/12/22 05:05:42;;;;;;;29.17;19.10;;;;;;;-9.70;100.00;97325.06;5092301;28;21058;-71
2021/12/22 05:08:09;;;;;;;29.53;16.23;;;;;;;-9.77;100.00;97327.50;5092503;28;20509;-71
2021/12/22 05:10:36;;;;;;;20.00;13.80;;;;;;;-9.91;100.00;97321.38;5092279;28;20526;-71
2021/12/22 05:13:03;;;;;;;21.13;12.90;;;;;;;-9.86;100.00;97324.22;5092287;28;20423;-71
2021/12/22 05:15:37;;;;;;;13.97;12.30;;;;;;;-9.78;100.00;97320.78;5093557;28;20427;-70
2021/12/22 05:18:22;;;;;;;13.20;11.40;;;;;;;-9.90;100.00;97299.16;5092156;28;20451;-71
2021/12/22 05:20:50;;;;;;;18.97;12.27;;;;;;;-9.92;100.00;97286.53;5092017;28;20459;-71
2021/12/22 05:23:17;;;;;;;11.53;8.93;;;;;;;-9.87;100.00;97284.28;5093477;28;20500;-71
2021/12/22 05:25:44;;;;;;;14.70;11.87;;;;;;;-9.64;100.00;97317.47;5091845;28;21032;-71
2021/12/22 05:28:11;;;;;;;13.07;9.17;;;;;;;-9.73;100.00;97308.28;5093338;28;20500;-71
2021/12/22 05:30:38;;;;;;;9.87;8.77;;;;;;;-9.71;100.00;97314.03;5092054;28;20791;-71
2021/12/22 05:33:04;;;;;;;13.30;11.07;;;;;;;-9.78;100.00;97320.00;5093359;28;20432;-71
2021/12/22 05:35:31;;;;;;;13.03;10.27;;;;;;;-9.93;100.00;97300.28;5091856;28;20436;-71
2021/12/22 05:37:58;;;;;;;11.83;10.00;;;;;;;-9.89;100.00;97309.19;5093040;28;20447;-71
2021/12/22 05:40:28;;;;;;;8.03;7.20;;;;;;;-9.40;100.00;97320.75;5091818;28;20488;-71
2021/12/22 05:42:56;;;;;;;12.87;10.07;;;;;;;-9.36;100.00;97319.44;5092941;28;20454;-71
2021/12/22 05:45:24;;;;;;;14.23;10.27;;;;;;;-8.87;100.00;97317.13;5074749;28;20804;-71
2021/12/22 05:47:52;;;;;;;13.00;10.90;;;;;;;-8.42;100.00;97328.88;5092803;28;20452;-71
2021/12/22 05:50:21;;;;;;;22.40;14.70;;;;;;;-8.00;100.00;97318.81;5091456;28;20435;-71
2021/12/22 05:52:49;;;;;;;30.90;19.80;;;;;;;-8.01;100.00;97323.13;5092762;28;20435;-71
2021/12/22 05:55:15;;;;;;;27.03;17.30;;;;;;;-8.23;100.00;97304.38;5091204;28;20516;-71
2021/12/22 05:57:42;;;;;;;28.87;21.83;;;;;;;-8.68;100.00;97319.13;5091443;28;20882;-71
2021/12/22 06:00:10;;;;;;;33.23;21.07;;;;;;;-8.93;100.00;97311.94;5074370;28;20889;-71
2021/12/22 06:02:39;;;;;;;21.63;18.40;;;;;;;-9.36;100.00;97319.44;5091324;28;20531;-71
2021/12/22 06:05:07;;;;;;;22.57;15.77;;;;;;;-9.50;100.00;97315.88;5092666;28;20427;-71
2021/12/22 06:07:33;;;;;;;14.03;11.83;;;;;;;-9.47;100.00;97312.22;5091107;28;20524;-71
2021/12/22 06:10:00;;;;;;;12.93;9.47;;;;;;;-9.67;100.00;97315.25;5074378;28;20439;-71
2021/12/22 06:12:27;;;;;;;9.13;7.73;;;;;;;-9.71;100.00;97313.22;5091075;28;20430;-71
2021/12/22 06:14:54;;;;;;;10.00;8.40;;;;;;;-9.76;100.00;97316.28;5091026;28;20435;-71
2021/12/22 06:17:20;;;;;;;8.17;7.37;;;;;;;-9.92;100.00;97312.09;5074232;28;20456;-71
2021/12/22 06:19:47;;;;;;;7.97;7.03;;;;;;;-9.95;100.00;97316.78;5090947;28;20943;-72
2021/12/22 06:22:13;;;;;;;8.10;7.30;;;;;;;-10.01;100.00;97315.72;5091012;28;20800;-72
2021/12/22 06:24:40;;;;;;;10.87;8.73;;;;;;;-10.17;100.00;97303.03;5091150;28;21007;-71
2021/12/22 06:27:07;;;;;;;9.97;7.60;;;;;;;-10.09;100.00;97294.53;5092350;28;20494;-71
2021/12/22 06:29:34;;;;;;;12.57;8.10;;;;;;;-10.00;100.00;97312.19;5074285;28;20443;-71
2021/12/22 06:32:01;;;;;;;11.20;7.60;;;;;;;-10.11;100.00;97306.69;5092313;28;20435;-71
2021/12/22 06:34:27;;;;;;;8.73;7.80;;;;;;;-10.04;100.00;97310.13;5090765;28;20484;-71
2021/12/22 06:36:54;;;;;;;14.93;13.00;;;;;;;-10.06;100.00;97310.31;5090735;28;20481;-72
2021/12/22 06:39:26;;;;;;;23.47;19.13;;;;;;;-10.02;100.00;97318.44;5090803;28;20473;-72
2021/12/22 06:41:53;;;;;;;19.40;17.30;;;;;;;-10.05;100.00;97318.78;5092107;28;20846;-71
2021/12/22 06:44:19;;;;;;;54.40;33.70;;;;;;;-10.12;100.00;97303.34;5090523;28;20440;-71
2021/12/22 06:46:46;;;;;;;25.80;16.90;;;;;;;-10.00;100.00;97319.06;5090476;28;20586;-71
2021/12/22 06:49:13;;;;;;;26.60;18.83;;;;;;;-10.13;100.00;97294.09;5090563;28;20518;-72
2021/12/22 06:51:40;;;;;;;36.40;24.97;;;;;;;-10.14;100.00;97305.28;5091729;28;20954;-72
2021/12/22 06:54:06;;;;;;;25.47;18.23;;;;;;;-10.01;100.00;97322.59;5091780;28;20428;-74
2021/12/22 06:56:34;;;;;;;23.10;15.03;;;;;;;-10.02;100.00;97328.66;5091717;28;21064;-71
2021/12/22 06:59:03;;;;;;;18.27;11.83;;;;;;;-9.96;100.00;97323.66;5090352;28;20446;-72
2021/12/22 07:01:32;;;;;;;23.07;17.80;;;;;;;-10.01;100.00;97310.59;5090433;28;20966;-71
2021/12/22 07:04:00;;;;;;;28.37;17.20;;;;;;;-9.97;100.00;97331.50;5090365;28;20508;-71
2021/12/22 07:06:27;;;;;;;38.63;26.07;;;;;;;-9.98;100.00;97325.59;5091398;28;20459;-71
2021/12/22 07:08:54;;;;;;;22.93;17.13;;;;;;;-9.96;100.00;97333.09;5073454;28;20431;-72
2021/12/22 07:11:20;;;;;;;25.23;17.50;;;;;;;-10.18;100.00;97306.56;5090369;28;20426;-71
2021/12/22 07:13:47;;;;;;;20.93;14.47;;;;;;;-10.19;100.00;97321.09;5091426;28;20877;-72
2021/12/22 07:16:14;;;;;;;17.03;12.00;;;;;;;-10.16;100.00;97323.31;5091320;28;20432;-71
2021/12/22 07:18:41;;;;;;;16.53;13.07;;;;;;;-9.63;100.00;97336.16;5090147;28;20435;-69
2021/12/22 07:21:08;;;;;;;122.97;65.07;;;;;;;-9.93;100.00;97307.97;5091453;28;20461;-71
2021/12/22 07:23:35;;;;;;;64.03;34.37;;;;;;;-9.97;100.00;97344.28;5091374;28;20463;-71
2021/12/22 07:26:01;;;;;;;30.80;19.43;;;;;;;-10.05;100.00;97339.22;5089326;28;20494;-71
2021/12/22 07:28:28;;;;;;;24.90;12.63;;;;;;;-10.55;100.00;97327.75;5091175;28;20512;-71
2021/12/22 07:30:55;;;;;;;16.77;10.90;;;;;;;-10.50;100.00;97331.41;5090007;28;20467;-71
2021/12/22 07:33:22;;;;;;;13.27;9.17;;;;;;;-10.49;100.00;97333.00;5089977;28;20441;-71
2021/12/22 07:35:52;;;;;;;13.13;8.73;;;;;;;-10.32;100.00;97336.25;5089867;28;20435;-71
2021/12/22 07:38:24;;;;;;;16.83;12.07;;;;;;;-10.09;100.00;97349.00;5089894;28;20505;-71
2021/12/22 07:40:52;;;;;;;29.77;24.87;;;;;;;-10.05;100.00;97347.69;5073093;28;20467;-71
2021/12/22 07:43:19;;;;;;;44.93;40.17;;;;;;;-10.06;100.00;97322.28;5089732;28;20477;-71
2021/12/22 07:45:46;;;;;;;25.43;20.57;;;;;;;-9.91;100.00;97367.41;5089773;28;20435;-71
2021/12/22 07:48:13;;;;;;;22.67;20.40;;;;;;;-9.90;100.00;97368.19;5091077;28;20446;-71
2021/12/22 07:50:40;;;;;;;15.37;12.03;;;;;;;-9.95;100.00;97366.16;5089734;28;20481;-71
2021/12/22 07:53:07;;;;;;;12.27;10.93;;;;;;;-10.19;100.00;97341.56;5091058;28;20439;-71
2021/12/22 07:55:35;;;;;;;13.33;10.80;;;;;;;-10.01;100.00;97371.19;5089771;28;20821;-71
2021/12/22 07:58:07;;;;;;;9.80;7.73;;;;;;;-9.95;100.00;97373.84;5073548;28;20969;-71
2021/12/22 08:00:36;;;;;;;7.20;6.13;;;;;;;-9.83;100.00;97384.47;5072863;28;20447;-71
2021/12/22 08:03:03;;;;;;;345.40;160.83;;;;;;;-9.64;100.00;97378.06;5090978;28;20428;-71
2021/12/22 08:05:51;;;;;;;174.50;97.80;;;;;;;-9.57;100.00;97371.31;5091204;28;20430;-72
2021/12/22 08:08:18;;;;;;;137.70;70.60;;;;;;;-9.64;100.00;97368.63;5089731;28;20451;-71
2021/12/22 08:10:49;;;;;;;82.20;57.47;;;;;;;-9.61;100.00;97378.53;5073379;28;20430;-71
2021/12/22 08:13:16;;;;;;;39.33;27.27;;;;;;;-9.63;100.00;97380.44;5089721;28;20489;-71
2021/12/22 08:15:44;;;;;;;21.20;16.40;;;;;;;-9.68;100.00;97357.16;5089689;28;20978;-72
2021/12/22 08:18:11;;;;;;;20.33;13.73;;;;;;;-9.50;100.00;97359.38;5091022;28;20481;-71
2021/12/22 08:20:38;;;;;;;15.03;11.90;;;;;;;-9.28;100.00;97384.16;5090016;28;20488;-71
2021/12/22 08:23:05;;;;;;;17.50;11.90;;;;;;;-9.28;100.00;97378.22;5089816;28;20446;-71
2021/12/22 08:25:32;;;;;;;11.90;9.80;;;;;;;-9.30;100.00;97378.41;5091084;28;20423;-72
2021/12/22 08:27:59;;;;;;;17.93;11.00;;;;;;;-9.18;100.00;97381.34;5072720;28;20511;-72
2021/12/22 08:30:27;;;;;;;12.60;10.20;;;;;;;-9.15;100.00;97373.31;5090927;28;20946;-72
2021/12/22 08:32:55;;;;;;;11.43;8.90;;;;;;;-8.98;100.00;97387.53;5089570;28;20440;-72
2021/12/22 08:35:25;;;;;;;11.80;10.43;;;;;;;-8.89;100.00;97387.44;5091036;28;20427;-72
2021/12/22 08:40:37;;;;;;;13.03;11.60;;;;;;;-9.04;100.00;97354.16;5093133;28;20956;-69
2021/12/22 08:43:04;;;;;;;14.03;10.90;;;;;;;-8.75;100.00;97389.22;5094326;28;20481;-72
2021/12/22 08:45:30;;;;;;;11.33;10.23;;;;;;;-8.75;100.00;97381.53;5094363;28;20455;-70
2021/12/22 08:47:57;;;;;;;14.33;8.93;;;;;;;-8.68;100.00;97370.41;5092459;28;21042;-70
2021/12/22 08:50:24;;;;;;;11.77;8.90;;;;;;;-8.52;100.00;97379.66;5092838;28;20484;-70
2021/12/22 08:52:51;;;;;;;8.53;7.37;;;;;;;-8.58;100.00;97370.09;5092741;28;20462;-70
2021/12/22 08:55:20;;;;;;;11.27;9.07;;;;;;;-8.55;100.00;97369.72;5092886;28;20431;-70
2021/12/22 08:57:46;;;;;;;9.50;7.50;;;;;;;-8.50;100.00;97374.34;5092677;28;20462;-70
2021/12/22 09:00:14;;;;;;;11.97;9.37;;;;;;;-8.44;100.00;97371.03;5092765;28;20451;-70
2021/12/22 09:02:40;;;;;;;15.53;11.47;;;;;;;-8.28;100.00;97345.16;5092488;28;20942;-71
2021/12/22 09:05:08;;;;;;;11.53;9.70;;;;;;;-8.18;100.00;97361.03;5075715;28;20484;-70
2021/12/22 09:07:35;;;;;;;14.70;10.47;;;;;;;-8.15;100.00;97355.53;5091946;28;20516;-71
2021/12/22 09:10:04;;;;;;;14.23;10.77;;;;;;;-8.12;100.00;97359.53;5092324;28;20427;-71
2021/12/22 09:12:30;;;;;;;11.07;9.07;;;;;;;-8.02;100.00;97326.66;5075390;28;20439;-70
2021/12/22 09:14:57;;;;;;;12.43;9.83;;;;;;;-7.92;100.00;97349.44;5092153;28;20530;-71
2021/12/22 09:17:24;;;;;;;14.73;9.37;;;;;;;-7.84;100.00;97365.53;5092687;28;20447;-71
2021/12/22 09:19:53;;;;;;;13.17;8.80;;;;;;;-8.03;100.00;97332.75;5093666;28;20432;-70
2021/12/22 09:22:21;;;;;;;13.30;9.10;;;;;;;-7.77;100.00;97353.53;5092014;28;20435;-71
2021/12/22 09:24:48;;;;;;;9.40;8.17;;;;;;;-7.63;100.00;97364.69;5092212;28;20489;-70
2021/12/22 09:27:15;;;;;;;10.63;8.33;;;;;;;-7.68;100.00;97359.34;5091950;28;20765;-71
2021/12/22 09:29:42;;;;;;;12.60;8.73;;;;;;;-7.48;100.00;97362.88;5093496;28;20431;-71
2021/12/22 09:32:14;;;;;;;9.07;8.17;;;;;;;-7.34;100.00;97368.09;5093516;28;20947;-71
2021/12/22 09:34:46;;;;;;;15.73;9.47;;;;;;;-7.50;100.00;97361.44;5092157;28;20446;-71
2021/12/22 09:37:12;;;;;;;11.43;9.00;;;;;;;-7.42;100.00;97358.75;5093141;28;20534;-70
2021/12/22 09:39:39;;;;;;;12.77;8.87;;;;;;;-7.24;100.00;97364.19;5093204;28;20479;-71
2021/12/22 09:42:07;;;;;;;10.40;7.43;;;;;;;-7.15;100.00;97337.38;5091524;28;20467;-71
2021/12/22 09:44:38;;;;;;;12.90;9.87;;;;;;;-7.04;100.00;97338.63;5093069;28;20857;-70
2021/12/22 09:47:05;;;;;;;19.47;11.87;;;;;;;-7.02;100.00;97335.88;5091502;28;20475;-71
2021/12/22 09:52:17;;;;;;;16.10;11.90;;;;;;;-6.88;100.00;97335.75;5091572;28;20528;-71
2021/12/22 09:54:49;;;;;;;18.20;12.37;;;;;;;-6.84;100.00;97331.00;5091422;28;21289;-71
2021/12/22 09:57:17;;;;;;;15.43;11.60;;;;;;;-6.74;100.00;97328.88;5093365;28;20443;-70
2021/12/22 09:59:46;;;;;;;17.20;10.40;;;;;;;-6.65;100.00;97327.75;5093159;28;20500;-70
2021/12/22 10:02:14;;;;;;;11.90;9.97;;;;;;;-6.50;100.00;97342.25;5092085;28;20440;-70
2021/12/22 10:04:41;;;;;;;16.33;11.53;;;;;;;-6.48;100.00;97307.63;5091407;28;20427;-70
2021/12/22 10:07:15;;;;;;;15.37;10.17;;;;;;;-6.29;100.00;97336.94;5090914;28;20502;-71
2021/12/22 10:09:44;;;;;;;16.80;11.23;;;;;;;-6.23;100.00;97330.25;5091123;28;20439;-71
2021/12/22 10:12:19;;;;;;;12.00;9.90;;;;;;;-6.04;100.00;97314.03;5092367;28;20439;-70
2021/12/22 10:14:50;;;;;;;13.93;10.30;;;;;;;-6.04;100.00;97314.81;5092400;28;20424;-71
2021/12/22 10:17:26;;;;;;;19.07;10.53;;;;;;;-5.91;100.00;97326.91;5092181;28;20473;-71
2021/12/22 10:19:59;;;;;;;13.27;8.60;;;;;;;-5.74;100.00;97325.53;5090824;28;20467;-71
2021/12/22 10:22:31;;;;;;;12.47;8.67;;;;;;;-5.66;100.00;97322.75;5090866;28;20439;-71
2021/12/22 10:25:10;;;;;;;11.93;8.57;;;;;;;-5.63;100.00;97325.91;5092250;28;20458;-71
2021/12/22 10:27:39;;;;;;;14.27;11.10;;;;;;;-5.71;100.00;97304.53;5092151;28;20962;-71
2021/12/22 10:30:30;;;;;;;16.47;9.30;;;;;;;-5.61;100.00;97317.00;5090805;28;20470;-71
2021/12/22 10:33:14;;;;;;;12.63;9.60;;;;;;;-5.50;100.00;97320.75;5092530;28;20422;-71
2021/12/22 10:35:45;;;;;;;13.47;9.80;;;;;;;-5.35;100.00;97321.31;5074034;28;20432;-71
2021/12/22 10:38:14;;;;;;;16.33;9.57;;;;;;;-5.42;100.00;97312.81;5090596;28;20455;-71
2021/12/22 10:40:44;;;;;;;13.33;9.20;;;;;;;-5.26;100.00;97309.03;5090701;28;20427;-71
2021/12/22 10:43:18;;;;;;;13.10;9.17;;;;;;;-4.90;100.00;97313.72;5090786;28;20469;-71
2021/12/22 10:45:47;;;;;;;9.73;8.43;;;;;;;-4.92;100.00;97301.03;5091930;28;20476;-71
2021/12/22 10:51:08;;;;;;;12.03;9.60;;;;;;;-5.07;100.00;97298.69;5091813;28;20468;-72
2021/12/22 10:53:46;;;;;;;12.90;9.43;;;;;;;-4.89;100.00;97281.78;5073678;28;20440;-71
2021/12/22 10:56:23;;;;;;;10.63;8.57;;;;;;;-4.69;100.00;97297.16;5090324;28;20463;-71
2021/12/22 10:59:11;;;;;;;11.70;8.60;;;;;;;-4.60;100.00;97288.97;5090123;28;20430;-72
2021/12/22 11:02:06;;;;;;;10.43;9.43;;;;;;;-4.64;100.00;97281.88;5090178;28;20440;-71
2021/12/22 11:04:34;;;;;;;9.50;8.50;;;;;;;-4.50;100.00;97280.81;5090334;28;20502;-72
2021/12/22 11:07:26;;;;;;;16.37;9.70;;;;;;;-4.55;100.00;97268.50;5089996;28;20491;-71
2021/12/22 11:09:54;;;;;;;15.10;9.50;;;;;;;-4.37;100.00;97277.38;5090180;28;20957;-72
2021/12/22 11:12:34;;;;;;;12.77;8.77;;;;;;;-4.42;100.00;97275.38;5091524;28;20423;-71
2021/12/22 11:15:02;;;;;;;11.73;8.70;;;;;;;-4.45;100.00;97242.25;5091544;28;20500;-71
2021/12/22 11:17:29;;;;;;;16.13;9.57;;;;;;;-4.30;100.00;97253.09;5091357;28;21034;-72
2021/12/22 11:20:04;;;;;;;16.43;12.73;;;;;;;-4.23;100.00;97255.63;5090060;28;20496;-71
2021/12/22 11:23:19;;;;;;;16.93;8.93;;;;;;;-4.11;100.00;97272.03;5090072;28;20986;-72
2021/12/22 11:25:40;;;;;;;13.90;8.60;;;;;;;-3.98;100.00;97266.78;5089269;28;20486;-71
2021/12/22 11:28:07;;;;;;;9.23;7.67;;;;;;;-4.07;100.00;97237.03;5089746;28;20470;-71
2021/12/22 11:30:35;;;;;;;11.77;9.30;;;;;;;-4.06;100.00;97248.16;5090046;28;20491;-71
2021/12/22 11:33:02;;;;;;;10.93;8.43;;;;;;;-3.86;100.00;97251.41;5091319;28;20466;-71
2021/12/22 11:35:31;;;;;;;12.27;8.83;;;;;;;-3.78;100.00;97245.94;5089964;28;20824;-71
2021/12/22 11:37:58;;;;;;;10.00;8.00;;;;;;;-3.83;100.00;97245.00;5091149;28;20451;-71
2021/12/22 11:40:26;;;;;;;9.77;8.53;;;;;;;-3.79;100.00;97235.81;5091217;28;20481;-72
2021/12/22 11:42:53;;;;;;;14.30;8.87;;;;;;;-3.80;100.00;97236.81;5090012;28;20806;-72